Monday, December 5, 2016, 11:34 AM EST

KFYJ, West Point, Middle Peninsula Regional Airport

Location: Shacklefords, VA, United States Lat: 37.521
Local Time: 11:34 AM EST (16:34 GMT) Lon: -76.764
Time Zone: US/Eastern Elev: 22 ft

Show me the last for .
Show Decoded

2016-12-05 11:15 METAR KFYJ 051615Z AUTO 34004KT 10SM OVC005 07/07 A3005 RMK AO2 T00730069 =
2016-12-05 10:55 METAR KFYJ 051555Z AUTO 29004KT 10SM OVC005 07/07 A3005 RMK AO2 T00720069 =
2016-12-05 10:35 METAR KFYJ 051535Z AUTO 00000KT 10SM OVC005 07/07 A3005 RMK AO2 T00710069 =
2016-12-05 10:15 METAR KFYJ 051515Z AUTO 00000KT 10SM OVC005 07/07 A3004 RMK AO2 T00680066 =
2016-12-05 09:55 METAR KFYJ 051455Z AUTO 29003KT 7SM OVC002 07/06 A3005 RMK AO2 T00660064 =
2016-12-05 09:35 METAR KFYJ 051435Z AUTO 33003KT 7SM OVC002 06/06 A3004 RMK AO2 T00640062 =
2016-12-05 09:15 METAR KFYJ 051415Z AUTO 00000KT 7SM OVC002 06/06 A3003 RMK AO2 T00600060 =
2016-12-05 08:55 METAR KFYJ 051355Z AUTO 00000KT 5SM OVC002 06/06 A3003 RMK AO2 T00610060 =
2016-12-05 08:35 METAR KFYJ 051335Z AUTO 29003KT 5SM OVC002 06/06 A3002 RMK AO2 T00620060 =
2016-12-05 08:15 METAR KFYJ 051315Z AUTO 29003KT 7SM BKN002 06/06 A3001 RMK AO2 T00600057 =
2016-12-05 07:55 METAR KFYJ 051255Z AUTO 00000KT 1 1/4SM VV007 05/05 A3001 RMK AO2 T00520050 =
2016-12-05 07:35 METAR KFYJ 051235Z AUTO 00000KT 1 1/2SM BKN003 05/05 A3000 RMK AO2 T00510050 =
2016-12-05 07:15 METAR KFYJ 051215Z AUTO 00000KT 2 1/2SM BKN003 05/05 A3002 RMK AO2 T00530051 =
2016-12-05 06:55 METAR KFYJ 051155Z AUTO 00000KT 7SM SCT003 SCT034 06/05 A3001 RMK AO2 60032
                 70038 T00550053 10058 20052 =
2016-12-05 06:35 METAR KFYJ 051135Z AUTO 00000KT 7SM SCT004 OVC034 06/06 A3001 RMK AO2 T00580055
                 =
2016-12-05 06:15 METAR KFYJ 051115Z AUTO 00000KT 4SM SCT004 BKN021 OVC036 06/06 A3003 RMK AO2
                 T00580055 =
2016-12-05 05:55 METAR KFYJ 051055Z AUTO 00000KT 4SM SCT006 BKN028 OVC041 06/06 A3005 RMK AO2
                 P0001 T00570055 =
2016-12-05 05:35 METAR KFYJ 051035Z AUTO 00000KT 4SM OVC006 06/05 A3005 RMK AO2 T00570054 =
2016-12-05 05:15 METAR KFYJ 051015Z AUTO 00000KT 5SM OVC004 06/06 A3004 RMK AO2 T00570055 =
2016-12-05 04:55 METAR KFYJ 050955Z AUTO 00000KT 5SM OVC004 06/05 A3003 RMK AO2 P0004 T00560053 =
2016-12-05 04:35 METAR KFYJ 050935Z AUTO 00000KT 3SM BKN004 BKN017 OVC038 06/05 A3004 RMK AO2
                 P0003 T00570054 =
2016-12-05 04:15 METAR KFYJ 050915Z AUTO 00000KT 2 1/2SM BKN004 BKN014 OVC028 06/05 A3005 RMK AO2
                 P0002 T00570053 =
2016-12-05 03:55 METAR KFYJ 050855Z AUTO 00000KT 4SM BKN004 BKN025 OVC038 06/05 A3006 RMK AO2
                 P0007 60027 T00570054 =
2016-12-05 03:35 METAR KFYJ 050835Z AUTO 26004KT 4SM SCT004 BKN031 OVC039 06/06 A3007 RMK AO2
                 P0005 T00580055 =
2016-12-05 03:15 METAR KFYJ 050815Z AUTO 00000KT 4SM SCT003 BKN026 OVC034 06/06 A3008 RMK AO2
                 P0002 T00580055 =
2016-12-05 02:55 METAR KFYJ 050755Z AUTO 20004KT 4SM SCT005 BKN022 OVC039 06/05 A3008 RMK AO2
                 P0011 T00580053 =
2016-12-05 02:35 METAR KFYJ 050735Z AUTO 20003KT 3SM SCT005 BKN021 OVC033 06/05 A3009 RMK AO2
                 P0008 T00570052 =
2016-12-05 02:15 METAR KFYJ 050715Z AUTO 19004KT 3SM SCT007 BKN015 OVC021 06/05 A3009 RMK AO2
                 P0004 T00580053 =
2016-12-05 01:55 METAR KFYJ 050655Z AUTO 18006KT 3SM BKN007 OVC014 06/05 A3009 RMK AO2 P0009
                 T00570052 =
2016-12-05 01:35 METAR KFYJ 050635Z AUTO 15006KT 3SM SCT005 OVC016 06/05 A3008 RMK AO2 P0005
                 T00550050 =
2016-12-05 01:15 METAR KFYJ 050615Z AUTO 12004KT 3SM SCT003 OVC018 06/05 A3008 RMK AO2 P0002
                 T00550048 =
2016-12-05 00:55 METAR KFYJ 050555Z AUTO 12005KT 3SM SCT005 BKN016 OVC022 05/05 A3007 RMK AO2
                 P0004 60006 T00520046 10058 20047 400681004 =
2016-12-05 00:35 METAR KFYJ 050535Z AUTO 10004KT 3SM SCT010 BKN018 OVC031 05/04 A3008 RMK AO2
                 P0003 T00500043 =
2016-12-05 00:15 METAR KFYJ 050515Z AUTO 10003KT 3SM BKN019 BKN026 OVC041 05/04 A3011 RMK AO2
                 P0001 T00490040 =
2016-12-04 23:55 METAR KFYJ 050455Z AUTO 12004KT 4SM SCT019 BKN035 OVC050 05/04 A3012 RMK AO2
                 P0001 T00480038 =
2016-12-04 23:35 METAR KFYJ 050435Z AUTO 12004KT 7SM SCT030 BKN037 OVC047 05/04 A3014 RMK AO2
                 T00470037 =
2016-12-04 23:15 METAR KFYJ 050415Z AUTO 09004KT 5SM BKN031 BKN037 OVC050 05/04 A3014 RMK AO2
                 T00480038 =
2016-12-04 22:55 METAR KFYJ 050355Z AUTO 09003KT 7SM BKN033 OVC040 05/04 A3016 RMK AO2 P0001
                 T00490037 =
2016-12-04 22:35 METAR KFYJ 050335Z AUTO 00000KT 10SM SCT033 OVC040 05/04 A3017 RMK AO2 P0001
                 T00480037 =
2016-12-04 22:15 METAR KFYJ 050315Z AUTO 00000KT 10SM SCT038 BKN045 OVC065 05/04 A3017 RMK AO2
                 T00490037 =
2016-12-04 21:55 METAR KFYJ 050255Z AUTO 00000KT 10SM SCT047 SCT050 OVC060 05/04 A3017 RMK AO2
                 T00480037 =
2016-12-04 21:35 METAR KFYJ 050235Z AUTO 00000KT 10SM SCT046 OVC060 05/04 A3018 RMK AO2 T00480037
                 =
2016-12-04 21:15 METAR KFYJ 050215Z AUTO 00000KT 10SM OVC048 05/04 A3019 RMK AO2 T00500035 =
2016-12-04 20:55 METAR KFYJ 050155Z AUTO 00000KT 10SM BKN050 BKN060 OVC075 05/03 A3019 RMK AO2
                 T00500032 =
2016-12-04 20:35 METAR KFYJ 050135Z AUTO 00000KT 10SM SCT048 BKN075 OVC085 06/03 A3019 RMK AO2
                 T00550028 =
2016-12-04 20:15 METAR KFYJ 050115Z AUTO 00000KT 10SM BKN050 BKN060 OVC090 06/02 A3021 RMK AO2
                 T00580021 =
2016-12-04 19:55 METAR KFYJ 050055Z AUTO 00000KT 10SM SCT050 BKN065 OVC090 06/01 A3021 RMK AO2
                 T00570014 =
2016-12-04 19:35 METAR KFYJ 050035Z AUTO 00000KT 10SM SCT055 BKN075 OVC090 06/01 A3022 RMK AO2
                 T00550011 =
2016-12-04 19:15 METAR KFYJ 050015Z AUTO 00000KT 10SM BKN055 BKN100 05/02 A3021 RMK AO2 T00500018
                 =
2016-12-04 18:55 METAR KFYJ 042355Z AUTO 00000KT 10SM CLR 05/02 A3021 RMK AO2 T00470020 10068
                 20046 =
2016-12-04 18:35 METAR KFYJ 042335Z AUTO 00000KT 10SM CLR 05/02 A3022 RMK AO2 T00490015 =
2016-12-04 18:15 METAR KFYJ 042315Z AUTO 00000KT 10SM CLR 05/02 A3023 RMK AO2 T00520015 =
2016-12-04 17:55 METAR KFYJ 042255Z AUTO 00000KT 10SM SCT120 05/02 A3023 RMK AO2 T00500017 =
2016-12-04 17:35 METAR KFYJ 042235Z AUTO 00000KT 10SM SCT110 05/01 A3023 RMK AO2 T00540011 =
2016-12-04 17:15 METAR KFYJ 042215Z AUTO 00000KT 10SM SCT080 SCT120 06/01 A3024 RMK AO2 T00550007
                 =
2016-12-04 16:55 METAR KFYJ 042155Z AUTO 00000KT 10SM SCT070 SCT080 SCT110 06/01 A3023 RMK AO2
                 T00590006 =
2016-12-04 16:35 METAR KFYJ 042135Z AUTO 00000KT 10SM SCT070 SCT110 06/00 A3022 RMK AO2 T00620003
                 =
2016-12-04 16:15 METAR KFYJ 042115Z AUTO 00000KT 10SM OVC120 06/00 A3022 RMK AO2 T00640002 =
2016-12-04 15:55 METAR KFYJ 042055Z AUTO 13003KT 10SM BKN120 07/00 A3023 RMK AO2 T00650001 =
2016-12-04 15:35 METAR KFYJ 042035Z AUTO 13003KT 10SM SCT120 07/00 A3024 RMK AO2 T00661001 =
2016-12-04 15:15 METAR KFYJ 042015Z AUTO 00000KT 10SM CLR 07/00 A3026 RMK AO2 T00681003 =
2016-12-04 14:55 METAR KFYJ 041955Z AUTO 00000KT 10SM CLR 07/00 A3026 RMK AO2 T00661003 =
2016-12-04 14:35 METAR KFYJ 041935Z AUTO 00000KT 10SM CLR 07/00 A3026 RMK AO2 T00651005 =
2016-12-04 14:15 METAR KFYJ 041915Z AUTO 00000KT 10SM CLR 07/00 A3026 RMK AO2 T00650000 =
2016-12-04 13:55 METAR KFYJ 041855Z AUTO 00000KT 10SM CLR 07/00 A3026 RMK AO2 T00660000 =
2016-12-04 13:35 METAR KFYJ 041835Z AUTO 25003KT 10SM CLR 07/00 A3027 RMK AO2 T00651001 =
2016-12-04 13:15 METAR KFYJ 041815Z AUTO 26003KT 10SM CLR 06/00 A3028 RMK AO2 T00631001 =
2016-12-04 12:55 METAR KFYJ 041755Z AUTO 28003KT 10SM CLR 06/00 A3027 RMK AO2 T00611002 10062
                 20010 =
2016-12-04 12:35 METAR KFYJ 041735Z AUTO 24003KT 10SM CLR 06/00 A3028 RMK AO2 T00591002 =
2016-12-04 12:15 METAR KFYJ 041715Z AUTO 00000KT 10SM CLR 06/00 A3028 RMK AO2 T00551004 =
2016-12-04 11:55 METAR KFYJ 041655Z AUTO 00000KT 10SM CLR 06/00 A3029 RMK AO2 T00551001 =
2016-12-04 11:35 METAR KFYJ 041635Z AUTO 00000KT 10SM CLR 05/00 A3029 RMK AO2 T00501003 =

Support USWX by starting your Amazon purchase here.